Time;durP1;ratioP1;P1;durP2;ratioP2;P2;SDS_P1;SDS_P2;PMS_P1;PMS_P2;Temp;Humidity;BMP_temperature;BMP_pressure;BME280_temperature;BME280_humidity;BME280_pressure;Samples;Min_cycle;Max_cycle;Signal;HPM_P1;HPM_P2
2022/05/12 00:01:55;;;;;;;4.97;0.88;;;;;;;;;;4910084;29;20048;-69
2022/05/12 00:04:22;;;;;;;3.92;1.00;;;;;;;;;;4911819;29;20163;-69
2022/05/12 00:06:49;;;;;;;4.00;0.80;;;;;;;;;;4915103;29;20483;-69
2022/05/12 00:09:16;;;;;;;5.25;0.75;;;;;;;;;;4915514;29;20059;-69
2022/05/12 00:11:45;;;;;;;7.50;1.02;;;;;;;;;;4914784;29;20063;-69
2022/05/12 00:14:12;;;;;;;4.25;0.85;;;;;;;;;;4907624;29;20108;-69
2022/05/12 00:16:39;;;;;;;4.47;0.82;;;;;;;;;;4911495;29;20056;-69
2022/05/12 00:19:07;;;;;;;6.30;1.00;;;;;;;;;;4915606;29;20107;-69
2022/05/12 00:21:34;;;;;;;4.80;0.90;;;;;;;;;;4912780;29;20055;-69
2022/05/12 00:24:01;;;;;;;4.65;0.90;;;;;;;;;;4909808;29;20127;-69
2022/05/12 00:26:29;;;;;;;7.85;1.25;;;;;;;;;;4914739;29;20487;-69
2022/05/12 00:28:59;;;;;;;5.63;0.90;;;;;;;;;;4914245;29;20155;-69
2022/05/12 00:31:26;;;;;;;8.10;1.42;;;;;;;;;;4908356;29;20048;-69
2022/05/12 00:33:53;;;;;;;5.07;1.20;;;;;;;;;;4915061;29;20070;-69
2022/05/12 00:36:21;;;;;;;6.10;1.30;;;;;;;;;;4913831;29;20763;-69
2022/05/12 00:38:48;;;;;;;7.28;1.52;;;;;;;;;;4916766;29;20063;-69
2022/05/12 00:41:15;;;;;;;7.20;1.50;;;;;;;;;;4917615;29;20136;-69
2022/05/12 00:43:44;;;;;;;5.72;1.77;;;;;;;;;;4917806;29;20060;-69
2022/05/12 00:46:15;;;;;;;6.88;2.25;;;;;;;;;;4923544;29;20058;-69
2022/05/12 00:48:42;;;;;;;9.10;2.13;;;;;;;;;;4912860;29;20886;-69
2022/05/12 00:51:11;;;;;;;8.48;1.80;;;;;;;;;;4911562;29;20049;-69
2022/05/12 00:53:39;;;;;;;8.82;2.13;;;;;;;;;;4909127;29;20094;-69
2022/05/12 00:56:07;;;;;;;11.07;2.28;;;;;;;;;;4907140;29;20060;-69
2022/05/12 00:58:35;;;;;;;8.90;2.28;;;;;;;;;;4916779;29;20057;-69
2022/05/12 01:01:03;;;;;;;8.70;1.98;;;;;;;;;;4915626;29;20095;-71
2022/05/12 01:03:32;;;;;;;14.18;2.20;;;;;;;;;;4906185;29;20103;-71
2022/05/12 01:06:00;;;;;;;10.07;2.17;;;;;;;;;;4907067;29;20060;-71
2022/05/12 01:08:27;;;;;;;10.38;2.20;;;;;;;;;;4921018;29;20067;-71
2022/05/12 01:10:56;;;;;;;22.70;3.10;;;;;;;;;;4915006;29;20490;-71
2022/05/12 01:13:23;;;;;;;11.13;2.22;;;;;;;;;;4907374;29;20056;-71
2022/05/12 01:15:52;;;;;;;11.07;2.30;;;;;;;;;;4908038;29;20063;-71
2022/05/12 01:18:19;;;;;;;13.07;2.63;;;;;;;;;;4921461;29;20059;-71
2022/05/12 01:20:48;;;;;;;11.73;2.38;;;;;;;;;;4908980;29;20123;-71
2022/05/12 01:23:20;;;;;;;10.32;2.13;;;;;;;;;;4909060;29;20063;-71
2022/05/12 01:25:47;;;;;;;10.77;2.17;;;;;;;;;;4906642;29;20051;-71
2022/05/12 01:28:14;;;;;;;12.88;2.13;;;;;;;;;;4915744;29;20066;-71
2022/05/12 01:30:42;;;;;;;14.80;2.63;;;;;;;;;;4913000;29;20115;-71
2022/05/12 01:33:09;;;;;;;12.85;3.17;;;;;;;;;;4910006;29;20059;-71
2022/05/12 01:35:36;;;;;;;16.02;2.45;;;;;;;;;;4907376;29;20099;-72
2022/05/12 01:38:03;;;;;;;13.93;2.63;;;;;;;;;;4910597;29;20100;-72
2022/05/12 01:40:32;;;;;;;12.68;2.78;;;;;;;;;;4908220;29;20115;-72
2022/05/12 01:42:59;;;;;;;14.70;2.83;;;;;;;;;;4907499;29;20828;-72
2022/05/12 01:45:27;;;;;;;13.35;2.97;;;;;;;;;;4908963;29;20051;-72
2022/05/12 01:47:54;;;;;;;23.75;3.78;;;;;;;;;;4908732;29;20062;-72
2022/05/12 01:50:22;;;;;;;12.57;2.90;;;;;;;;;;4903734;29;20062;-72
2022/05/12 01:52:50;;;;;;;11.32;3.78;;;;;;;;;;4907025;29;20066;-72
2022/05/12 01:55:20;;;;;;;14.45;3.67;;;;;;;;;;4914197;29;20063;-72
2022/05/12 01:57:49;;;;;;;19.90;3.55;;;;;;;;;;4908474;29;20530;-72
2022/05/12 02:00:18;;;;;;;20.90;3.60;;;;;;;;;;4915397;29;20051;-72
2022/05/12 02:02:45;;;;;;;16.33;3.38;;;;;;;;;;4913890;29;20118;-72
2022/05/12 02:05:13;;;;;;;16.13;3.70;;;;;;;;;;4908312;29;20048;-72
2022/05/12 02:07:40;;;;;;;17.92;3.40;;;;;;;;;;4908690;29;20055;-72
2022/05/12 02:10:09;;;;;;;16.67;4.30;;;;;;;;;;4914191;29;20068;-72
2022/05/12 02:12:36;;;;;;;14.07;3.47;;;;;;;;;;4915003;29;20052;-72
2022/05/12 02:15:05;;;;;;;12.88;3.45;;;;;;;;;;4911112;29;20407;-72
2022/05/12 02:17:32;;;;;;;16.73;3.75;;;;;;;;;;4910447;29;20052;-72
2022/05/12 02:20:00;;;;;;;18.08;3.85;;;;;;;;;;4909413;29;20062;-72
2022/05/12 02:22:27;;;;;;;17.35;4.40;;;;;;;;;;4914573;29;20055;-72
2022/05/12 02:24:54;;;;;;;15.13;3.28;;;;;;;;;;4909062;29;20502;-72
2022/05/12 02:27:21;;;;;;;15.65;4.15;;;;;;;;;;4913380;29;20059;-72
2022/05/12 02:29:49;;;;;;;16.50;4.53;;;;;;;;;;4908668;29;20048;-72
2022/05/12 02:32:17;;;;;;;17.50;4.65;;;;;;;;;;4914131;29;20052;-72
2022/05/12 02:34:44;;;;;;;20.58;4.53;;;;;;;;;;4915377;29;20573;-72
2022/05/12 02:37:11;;;;;;;19.27;4.75;;;;;;;;;;4906934;29;20104;-72
2022/05/12 02:39:40;;;;;;;18.95;4.65;;;;;;;;;;4909344;29;20122;-72
2022/05/12 02:42:08;;;;;;;15.75;4.38;;;;;;;;;;4907107;29;20435;-72
2022/05/12 02:44:36;;;;;;;13.52;4.63;;;;;;;;;;4914998;29;20052;-72
2022/05/12 02:47:04;;;;;;;18.92;4.72;;;;;;;;;;4909237;29;20104;-72
2022/05/12 02:49:33;;;;;;;22.13;5.45;;;;;;;;;;4915423;29;20048;-72
2022/05/12 02:52:00;;;;;;;24.98;6.57;;;;;;;;;;4912558;29;20586;-72
2022/05/12 02:54:27;;;;;;;21.55;5.43;;;;;;;;;;4909103;29;20119;-72
2022/05/12 02:56:55;;;;;;;20.13;5.13;;;;;;;;;;4914043;29;20078;-72
2022/05/12 02:59:23;;;;;;;19.77;5.50;;;;;;;;;;4927662;29;20142;-72
2022/05/12 03:01:50;;;;;;;16.92;5.40;;;;;;;;;;4929337;29;20724;-72
2022/05/12 03:04:18;;;;;;;13.75;5.70;;;;;;;;;;4929734;29;20111;-72
2022/05/12 03:06:46;;;;;;;16.10;4.95;;;;;;;;;;4929005;29;20055;-72
2022/05/12 03:09:13;;;;;;;21.00;5.30;;;;;;;;;;4928228;28;20063;-72
2022/05/12 03:11:41;;;;;;;21.20;5.90;;;;;;;;;;4930405;29;20595;-72
2022/05/12 03:14:08;;;;;;;20.08;5.50;;;;;;;;;;4929975;29;20077;-72
2022/05/12 03:16:35;;;;;;;18.80;5.88;;;;;;;;;;4934262;28;20062;-72
2022/05/12 03:19:02;;;;;;;18.92;6.00;;;;;;;;;;4935821;29;20054;-72
2022/05/12 03:21:30;;;;;;;15.20;5.18;;;;;;;;;;4934619;29;20043;-72
2022/05/12 03:23:59;;;;;;;29.77;6.15;;;;;;;;;;4935224;29;20192;-72
2022/05/12 03:26:26;;;;;;;14.32;4.82;;;;;;;;;;4929890;29;20051;-72
2022/05/12 03:28:53;;;;;;;17.15;5.28;;;;;;;;;;4936867;29;20047;-72
2022/05/12 03:31:20;;;;;;;18.52;5.25;;;;;;;;;;4931964;29;20059;-72
2022/05/12 03:33:48;;;;;;;21.35;5.82;;;;;;;;;;4932597;29;20055;-72
2022/05/12 03:36:16;;;;;;;22.13;5.68;;;;;;;;;;4932948;29;20167;-72
2022/05/12 03:38:43;;;;;;;23.88;5.60;;;;;;;;;;4932264;28;20149;-72
2022/05/12 03:41:12;;;;;;;14.35;4.93;;;;;;;;;;4931759;29;20126;-72
2022/05/12 03:46:24;;;;;;;16.85;5.47;;;;;;;;;;4933900;29;20152;-72
2022/05/12 03:48:52;;;;;;;21.65;6.10;;;;;;;;;;4933225;28;20149;-72
2022/05/12 03:51:19;;;;;;;20.88;6.20;;;;;;;;;;4931965;29;20118;-72
2022/05/12 03:53:46;;;;;;;20.45;7.50;;;;;;;;;;4932630;29;20051;-72
2022/05/12 03:56:15;;;;;;;25.45;7.15;;;;;;;;;;4934443;29;20066;-71
2022/05/12 03:58:42;;;;;;;23.40;7.50;;;;;;;;;;4931381;29;20419;-72
2022/05/12 04:01:09;;;;;;;22.85;6.70;;;;;;;;;;4931986;29;20070;-72
2022/05/12 04:03:37;;;;;;;19.40;6.53;;;;;;;;;;4932468;29;20597;-72
2022/05/12 04:06:06;;;;;;;21.58;6.95;;;;;;;;;;4930651;29;20177;-72
2022/05/12 04:08:33;;;;;;;23.50;7.07;;;;;;;;;;4934895;29;20065;-72
2022/05/12 04:11:01;;;;;;;27.80;6.88;;;;;;;;;;4932066;29;20063;-72
2022/05/12 04:13:30;;;;;;;31.08;7.47;;;;;;;;;;4931890;29;20409;-72
2022/05/12 04:15:57;;;;;;;25.23;7.70;;;;;;;;;;4930266;29;20063;-72
2022/05/12 04:18:25;;;;;;;23.42;6.88;;;;;;;;;;4932417;29;20102;-72
2022/05/12 04:20:53;;;;;;;24.38;7.10;;;;;;;;;;4929967;29;20114;-72
2022/05/12 04:23:20;;;;;;;26.27;6.82;;;;;;;;;;4932643;29;20069;-72
2022/05/12 04:25:47;;;;;;;22.35;6.65;;;;;;;;;;4931920;28;20062;-72
2022/05/12 04:28:15;;;;;;;21.42;6.95;;;;;;;;;;4931687;29;20059;-72
2022/05/12 04:30:43;;;;;;;16.65;6.32;;;;;;;;;;4930638;28;20062;-72
2022/05/12 04:35:57;;;;;;;20.70;6.07;;;;;;;;;;4889980;29;20050;-72
2022/05/12 04:38:26;;;;;;;24.23;5.88;;;;;;;;;;4933028;29;20055;-72
2022/05/12 04:40:53;;;;;;;17.58;5.43;;;;;;;;;;4931804;29;20043;-72
2022/05/12 04:43:20;;;;;;;23.40;5.20;;;;;;;;;;4931235;29;20055;-72
2022/05/12 04:45:49;;;;;;;18.83;5.10;;;;;;;;;;4932041;29;20070;-72
2022/05/12 04:48:16;;;;;;;17.30;4.78;;;;;;;;;;4932193;29;20059;-72
2022/05/12 04:50:43;;;;;;;19.20;4.63;;;;;;;;;;4926620;29;20118;-72
2022/05/12 04:53:10;;;;;;;19.35;6.15;;;;;;;;;;4930465;29;20062;-72
2022/05/12 04:55:38;;;;;;;17.52;4.75;;;;;;;;;;4930849;29;20062;-72
2022/05/12 04:58:05;;;;;;;18.15;4.50;;;;;;;;;;4925617;29;20117;-72
2022/05/12 05:00:33;;;;;;;12.18;3.97;;;;;;;;;;4922571;29;20051;-72
2022/05/12 05:03:02;;;;;;;19.55;3.97;;;;;;;;;;4920135;29;20138;-72
2022/05/12 05:05:30;;;;;;;20.38;3.85;;;;;;;;;;4921922;29;20451;-72
2022/05/12 05:07:57;;;;;;;15.88;3.63;;;;;;;;;;4920553;28;20051;-72
2022/05/12 05:10:24;;;;;;;18.00;3.60;;;;;;;;;;4922414;29;20062;-72
2022/05/12 05:12:53;;;;;;;16.50;3.58;;;;;;;;;;4927766;29;20119;-71
2022/05/12 05:15:21;;;;;;;14.20;3.50;;;;;;;;;;4923154;29;20134;-71
2022/05/12 05:17:49;;;;;;;13.63;3.40;;;;;;;;;;4922273;29;20525;-72
2022/05/12 05:20:18;;;;;;;13.75;3.53;;;;;;;;;;4929351;29;20513;-73
2022/05/12 05:22:46;;;;;;;12.75;3.28;;;;;;;;;;4934231;29;20051;-73
2022/05/12 05:25:14;;;;;;;16.17;2.92;;;;;;;;;;4927675;29;20069;-73
2022/05/12 05:27:41;;;;;;;13.07;3.05;;;;;;;;;;4932621;28;20421;-73
2022/05/12 05:30:10;;;;;;;14.75;3.17;;;;;;;;;;4929697;29;20055;-72
2022/05/12 05:32:38;;;;;;;13.35;2.55;;;;;;;;;;4932349;29;20051;-72
2022/05/12 05:35:05;;;;;;;12.88;2.78;;;;;;;;;;4930330;28;20059;-73
2022/05/12 05:37:34;;;;;;;17.10;2.65;;;;;;;;;;4931636;29;20055;-72
2022/05/12 05:40:03;;;;;;;13.60;3.30;;;;;;;;;;4926528;29;20126;-71
2022/05/12 05:42:31;;;;;;;18.10;3.17;;;;;;;;;;4927693;29;20110;-71
2022/05/12 05:44:58;;;;;;;17.02;2.97;;;;;;;;;;4931161;28;20098;-71
2022/05/12 05:47:25;;;;;;;18.45;3.05;;;;;;;;;;4928129;29;20063;-71
2022/05/12 05:49:52;;;;;;;14.80;3.17;;;;;;;;;;4926701;29;20466;-71
2022/05/12 05:55:07;;;;;;;14.02;2.97;;;;;;;;;;4926561;29;20398;-71
2022/05/12 05:57:36;;;;;;;21.20;3.72;;;;;;;;;;4927301;29;20131;-71
2022/05/12 06:00:05;;;;;;;15.77;2.90;;;;;;;;;;4928230;28;20083;-71
2022/05/12 06:02:33;;;;;;;13.45;2.65;;;;;;;;;;4928017;29;20130;-71
2022/05/12 06:05:00;;;;;;;16.73;3.15;;;;;;;;;;4930534;28;20106;-71
2022/05/12 06:07:27;;;;;;;19.45;3.15;;;;;;;;;;4930308;29;20062;-71
2022/05/12 06:09:54;;;;;;;18.48;3.10;;;;;;;;;;4931419;28;20098;-71
2022/05/12 06:12:23;;;;;;;17.67;3.00;;;;;;;;;;4934385;28;20047;-71
2022/05/12 06:14:50;;;;;;;16.05;2.83;;;;;;;;;;4933090;29;20051;-71
2022/05/12 06:17:17;;;;;;;14.57;3.10;;;;;;;;;;4932226;29;20051;-71
2022/05/12 06:19:45;;;;;;;15.13;2.55;;;;;;;;;;4931602;29;20062;-71
2022/05/12 06:22:12;;;;;;;19.27;2.97;;;;;;;;;;4931494;29;20433;-71
2022/05/12 06:24:40;;;;;;;18.08;2.58;;;;;;;;;;4932060;29;20047;-71
2022/05/12 06:27:16;;;;;;;12.93;2.30;;;;;;;;;;4930150;29;20122;-71
2022/05/12 06:29:45;;;;;;;22.98;2.72;;;;;;;;;;4926958;29;20459;-71
2022/05/12 06:32:12;;;;;;;12.88;2.20;;;;;;;;;;4927596;29;20050;-71
2022/05/12 06:34:42;;;;;;;14.55;2.38;;;;;;;;;;4929949;29;20546;-71
2022/05/12 06:37:10;;;;;;;17.55;2.80;;;;;;;;;;4930415;29;20406;-71
2022/05/12 06:39:37;;;;;;;19.42;2.42;;;;;;;;;;4926075;28;20506;-71
2022/05/12 06:42:05;;;;;;;14.70;2.25;;;;;;;;;;4929319;28;20059;-71
2022/05/12 06:44:34;;;;;;;14.43;2.38;;;;;;;;;;4925721;28;20544;-71
2022/05/12 06:47:03;;;;;;;16.52;2.45;;;;;;;;;;4925804;29;20058;-71
2022/05/12 06:49:30;;;;;;;18.73;2.83;;;;;;;;;;4924766;29;20074;-71
2022/05/12 06:51:57;;;;;;;13.73;2.33;;;;;;;;;;4929306;29;20054;-71
2022/05/12 06:54:24;;;;;;;22.50;3.60;;;;;;;;;;4929067;28;20055;-71
2022/05/12 06:56:51;;;;;;;14.05;2.25;;;;;;;;;;4932548;29;20515;-71
2022/05/12 06:59:20;;;;;;;13.18;2.90;;;;;;;;;;4934843;28;20051;-71
2022/05/12 07:01:47;;;;;;;15.40;2.60;;;;;;;;;;4929863;29;20057;-71
2022/05/12 07:04:16;;;;;;;14.43;2.50;;;;;;;;;;4935145;29;20738;-71
2022/05/12 07:06:43;;;;;;;15.70;2.60;;;;;;;;;;4937160;28;20065;-71
2022/05/12 07:09:10;;;;;;;11.13;2.25;;;;;;;;;;4936553;29;20810;-71
2022/05/12 07:11:37;;;;;;;15.48;2.10;;;;;;;;;;4931333;29;20158;-71
2022/05/12 07:14:04;;;;;;;13.27;2.50;;;;;;;;;;4927816;28;20051;-71
2022/05/12 07:16:32;;;;;;;11.48;2.08;;;;;;;;;;4927603;28;20573;-71
2022/05/12 07:18:59;;;;;;;15.02;2.42;;;;;;;;;;4929109;29;20055;-71
2022/05/12 07:26:58;;;;;;;11.48;2.25;;;;;;;;;;4926229;29;20058;-71
2022/05/12 07:29:28;;;;;;;11.38;2.00;;;;;;;;;;4930305;28;21009;-71
2022/05/12 07:31:56;;;;;;;13.65;2.33;;;;;;;;;;4925446;28;20047;-71
2022/05/12 07:34:23;;;;;;;17.00;2.30;;;;;;;;;;4921122;28;20051;-71
2022/05/12 07:36:53;;;;;;;15.13;2.22;;;;;;;;;;4921267;29;20110;-71
2022/05/12 07:39:22;;;;;;;10.02;1.92;;;;;;;;;;4922788;29;20094;-71
2022/05/12 07:41:50;;;;;;;9.50;1.70;;;;;;;;;;4923212;28;20055;-71
2022/05/12 07:44:19;;;;;;;8.50;1.80;;;;;;;;;;4927857;29;20045;-71
2022/05/12 07:46:47;;;;;;;16.88;2.22;;;;;;;;;;4928892;28;20063;-71
2022/05/12 07:49:14;;;;;;;13.82;1.95;;;;;;;;;;4922012;29;20114;-71
2022/05/12 07:51:41;;;;;;;16.48;2.45;;;;;;;;;;4927620;28;20698;-71
2022/05/12 07:54:10;;;;;;;12.35;1.80;;;;;;;;;;4924908;29;20212;-71
2022/05/12 07:56:38;;;;;;;11.43;2.08;;;;;;;;;;4929016;28;20525;-71
2022/05/12 07:59:05;;;;;;;13.75;2.30;;;;;;;;;;4930132;29;20051;-70
2022/05/12 08:01:33;;;;;;;13.55;2.40;;;;;;;;;;4925114;28;20149;-70
2022/05/12 08:04:00;;;;;;;8.40;1.60;;;;;;;;;;4932971;29;20114;-70
2022/05/12 08:06:28;;;;;;;8.15;2.05;;;;;;;;;;4931976;28;20513;-70
2022/05/12 08:08:55;;;;;;;11.60;2.10;;;;;;;;;;4932703;28;20070;-70
2022/05/12 08:11:25;;;;;;;10.23;2.08;;;;;;;;;;4931587;29;20063;-70
2022/05/12 08:13:53;;;;;;;10.13;2.00;;;;;;;;;;4932541;28;20138;-70
2022/05/12 08:16:21;;;;;;;13.98;2.20;;;;;;;;;;4927588;28;20609;-70
2022/05/12 08:18:49;;;;;;;12.73;2.35;;;;;;;;;;4927751;29;20078;-70
2022/05/12 08:21:17;;;;;;;14.68;2.22;;;;;;;;;;4932393;29;20058;-70
2022/05/12 08:23:44;;;;;;;13.32;2.10;;;;;;;;;;4931892;29;20093;-70
2022/05/12 08:26:12;;;;;;;15.82;3.00;;;;;;;;;;4932463;29;20517;-70
2022/05/12 08:28:40;;;;;;;16.85;2.58;;;;;;;;;;4933136;28;20054;-70
2022/05/12 08:31:08;;;;;;;12.45;2.33;;;;;;;;;;4933190;29;20047;-70
2022/05/12 08:33:35;;;;;;;10.63;2.40;;;;;;;;;;4932004;28;20058;-70
2022/05/12 08:36:02;;;;;;;10.60;2.50;;;;;;;;;;4932494;29;20059;-70
2022/05/12 08:38:30;;;;;;;11.07;2.53;;;;;;;;;;4930347;28;20074;-70
2022/05/12 08:41:06;;;;;;;10.35;2.10;;;;;;;;;;4927486;29;20055;-70
2022/05/12 08:43:36;;;;;;;11.95;2.38;;;;;;;;;;4931504;28;20051;-70
2022/05/12 08:46:07;;;;;;;12.95;2.67;;;;;;;;;;4952440;28;20055;-70
2022/05/12 08:48:34;;;;;;;11.38;2.20;;;;;;;;;;4933670;28;20051;-70
2022/05/12 08:51:01;;;;;;;11.55;2.28;;;;;;;;;;4933283;29;20055;-70
2022/05/12 08:53:30;;;;;;;12.60;2.25;;;;;;;;;;4931002;29;20047;-70
2022/05/12 08:55:59;;;;;;;9.13;2.10;;;;;;;;;;4923469;29;20055;-70
2022/05/12 08:58:30;;;;;;;9.07;2.83;;;;;;;;;;4933060;29;20054;-70
2022/05/12 09:01:01;;;;;;;9.82;1.83;;;;;;;;;;4933020;28;20058;-70
2022/05/12 09:03:32;;;;;;;8.02;1.60;;;;;;;;;;4930083;29;20126;-70
2022/05/12 09:06:02;;;;;;;12.65;1.80;;;;;;;;;;4932040;29;20070;-70
2022/05/12 09:08:32;;;;;;;13.00;1.40;;;;;;;;;;4932704;29;20062;-70
2022/05/12 09:11:01;;;;;;;7.00;1.70;;;;;;;;;;4926496;29;20058;-70
2022/05/12 09:13:32;;;;;;;8.23;2.10;;;;;;;;;;4930709;29;20054;-70
2022/05/12 09:16:05;;;;;;;7.78;2.10;;;;;;;;;;4930136;29;20055;-70
2022/05/12 09:18:34;;;;;;;8.20;1.83;;;;;;;;;;4929644;29;20043;-70
2022/05/12 09:21:03;;;;;;;6.78;1.20;;;;;;;;;;4929738;29;20155;-70
2022/05/12 09:23:30;;;;;;;7.60;1.52;;;;;;;;;;4928562;29;20052;-70
2022/05/12 09:25:58;;;;;;;3.85;1.10;;;;;;;;;;4931359;28;20915;-70
2022/05/12 09:28:33;;;;;;;10.43;1.45;;;;;;;;;;4934927;28;20059;-70
2022/05/12 09:31:01;;;;;;;7.60;1.50;;;;;;;;;;4930985;28;20749;-70
2022/05/12 09:33:31;;;;;;;6.05;1.17;;;;;;;;;;4932049;29;20043;-70
2022/05/12 09:36:00;;;;;;;6.32;1.33;;;;;;;;;;4935722;28;20494;-70
2022/05/12 09:38:28;;;;;;;8.68;1.70;;;;;;;;;;4929131;29;20051;-70
2022/05/12 09:40:56;;;;;;;8.35;1.60;;;;;;;;;;4930617;28;20059;-70
2022/05/12 09:43:28;;;;;;;6.03;1.30;;;;;;;;;;4933674;28;20054;-70
2022/05/12 09:46:03;;;;;;;5.75;1.10;;;;;;;;;;4930217;29;20097;-70
2022/05/12 09:48:31;;;;;;;8.75;1.70;;;;;;;;;;4932630;28;20494;-70
2022/05/12 09:51:13;;;;;;;4.43;1.23;;;;;;;;;;4931425;29;20061;-70
2022/05/12 09:53:42;;;;;;;11.75;1.63;;;;;;;;;;4930232;28;20063;-70
2022/05/12 09:56:11;;;;;;;6.15;1.40;;;;;;;;;;4931480;29;20070;-70
2022/05/12 09:58:41;;;;;;;7.18;1.45;;;;;;;;;;4928571;29;20473;-70
2022/05/12 10:01:15;;;;;;;5.30;1.00;;;;;;;;;;4930513;29;20055;-70
2022/05/12 10:09:17;;;;;;;5.88;1.20;;;;;;;;;;4925437;29;20097;-70
2022/05/12 10:11:49;;;;;;;5.03;1.27;;;;;;;;;;4931199;29;20604;-70
2022/05/12 10:14:20;;;;;;;5.05;1.15;;;;;;;;;;4930069;29;20051;-70
2022/05/12 10:16:47;;;;;;;5.53;1.17;;;;;;;;;;4930902;29;20507;-70
2022/05/12 10:19:22;;;;;;;7.60;1.40;;;;;;;;;;4930050;29;20058;-70
2022/05/12 10:21:53;;;;;;;5.10;1.25;;;;;;;;;;4929620;29;20055;-70
2022/05/12 10:24:25;;;;;;;9.35;1.48;;;;;;;;;;4932744;29;20058;-70
2022/05/12 10:26:56;;;;;;;5.90;1.42;;;;;;;;;;4930476;29;20059;-70
2022/05/12 10:29:27;;;;;;;10.10;1.58;;;;;;;;;;4931120;29;20078;-70
2022/05/12 10:31:59;;;;;;;5.63;1.40;;;;;;;;;;4930114;29;20130;-70
2022/05/12 10:34:31;;;;;;;7.55;1.30;;;;;;;;;;4929615;29;20055;-70
2022/05/12 10:37:02;;;;;;;8.32;1.95;;;;;;;;;;4931218;29;20047;-70
2022/05/12 10:39:35;;;;;;;9.75;1.65;;;;;;;;;;4932498;29;20051;-70
2022/05/12 10:42:02;;;;;;;;;;;;;;;;;;4929733;29;20523;-70
2022/05/12 10:44:43;;;;;;;6.68;1.40;;;;;;;;;;4930156;29;19937;-70
2022/05/12 10:47:15;;;;;;;9.88;1.48;;;;;;;;;;4929633;28;20056;-70
2022/05/12 10:49:47;;;;;;;8.18;1.90;;;;;;;;;;4931838;28;20192;-70
2022/05/12 10:52:19;;;;;;;7.80;1.70;;;;;;;;;;4930252;29;20890;-70
2022/05/12 10:54:53;;;;;;;5.53;1.50;;;;;;;;;;4930710;29;20106;-70
2022/05/12 10:57:28;;;;;;;7.22;1.70;;;;;;;;;;4929208;29;20058;-70
2022/05/12 11:00:04;;;;;;;5.93;1.55;;;;;;;;;;4930277;29;20880;-70
2022/05/12 11:02:37;;;;;;;5.28;1.55;;;;;;;;;;4930762;29;20086;-70
2022/05/12 11:05:08;;;;;;;7.03;1.70;;;;;;;;;;4927990;28;20062;-70
2022/05/12 11:07:37;;;;;;;4.85;1.40;;;;;;;;;;4929188;29;20656;-70
2022/05/12 11:10:10;;;;;;;4.38;1.30;;;;;;;;;;4932124;29;20066;-70
2022/05/12 11:12:41;;;;;;;7.55;1.20;;;;;;;;;;4930080;29;20066;-70
2022/05/12 11:15:10;;;;;;;6.38;1.48;;;;;;;;;;4925105;28;20047;-70
2022/05/12 11:17:40;;;;;;;10.20;1.70;;;;;;;;;;4929710;28;20066;-70
2022/05/12 11:20:12;;;;;;;7.90;1.70;;;;;;;;;;4930831;29;20397;-70
2022/05/12 11:22:43;;;;;;;5.88;1.23;;;;;;;;;;4934706;28;20540;-70
2022/05/12 11:25:15;;;;;;;5.75;1.55;;;;;;;;;;4931330;28;20496;-70
2022/05/12 11:27:46;;;;;;;5.40;1.45;;;;;;;;;;4928164;29;20518;-70
2022/05/12 11:30:20;;;;;;;6.15;1.52;;;;;;;;;;4929576;29;20141;-70
2022/05/12 11:32:54;;;;;;;8.43;1.85;;;;;;;;;;4929248;29;20050;-70
2022/05/12 11:35:23;;;;;;;5.85;1.30;;;;;;;;;;4929957;29;20442;-70
2022/05/12 11:37:55;;;;;;;5.10;1.65;;;;;;;;;;4931120;28;20062;-70
2022/05/12 11:40:43;;;;;;;5.53;1.50;;;;;;;;;;4935306;29;20051;-70
2022/05/12 11:46:14;;;;;;;6.10;2.05;;;;;;;;;;4928967;28;20058;-70
2022/05/12 11:48:45;;;;;;;7.97;1.80;;;;;;;;;;4933111;29;20099;-70
2022/05/12 11:51:18;;;;;;;8.25;1.50;;;;;;;;;;4932305;29;20062;-70
2022/05/12 11:53:55;;;;;;;5.55;1.50;;;;;;;;;;4932788;28;20474;-70
2022/05/12 11:56:44;;;;;;;5.55;1.52;;;;;;;;;;4934031;29;20047;-70
2022/05/12 11:59:18;;;;;;;5.43;1.63;;;;;;;;;;4927659;29;20051;-70
2022/05/12 12:01:54;;;;;;;18.45;2.13;;;;;;;;;;4932421;29;20071;-70
2022/05/12 12:04:36;;;;;;;4.88;1.70;;;;;;;;;;4933712;28;20616;-70
2022/05/12 12:07:03;;;;;;;7.40;1.60;;;;;;;;;;4931787;28;20135;-70
2022/05/12 12:09:34;;;;;;;8.23;1.58;;;;;;;;;;4935969;28;20055;-70
2022/05/12 12:12:02;;;;;;;5.00;1.38;;;;;;;;;;4932245;28;20516;-70
2022/05/12 12:14:48;;;;;;;4.15;1.48;;;;;;;;;;4932836;29;20055;-70
2022/05/12 12:17:31;;;;;;;6.60;1.55;;;;;;;;;;4932481;29;20368;-70
2022/05/12 12:19:59;;;;;;;10.48;1.70;;;;;;;;;;4930829;28;20065;-70
2022/05/12 12:22:39;;;;;;;5.30;1.40;;;;;;;;;;4933932;29;20125;-70
2022/05/12 12:25:21;;;;;;;5.57;1.63;;;;;;;;;;4934116;29;20047;-70
2022/05/12 12:28:08;;;;;;;6.90;1.50;;;;;;;;;;4928046;28;20106;-70
2022/05/12 12:30:37;;;;;;;4.85;1.20;;;;;;;;;;4933032;29;20138;-70
2022/05/12 12:33:36;;;;;;;6.60;1.65;;;;;;;;;;4930314;29;20391;-70
2022/05/12 12:36:05;;;;;;;7.88;1.50;;;;;;;;;;4932636;28;20051;-70
2022/05/12 12:38:43;;;;;;;8.00;1.75;;;;;;;;;;4933535;29;20055;-70
2022/05/12 12:41:10;;;;;;;7.97;1.40;;;;;;;;;;4932290;28;20066;-70
2022/05/12 12:43:38;;;;;;;5.22;1.58;;;;;;;;;;4933087;29;20059;-70
2022/05/12 12:46:14;;;;;;;7.38;1.50;;;;;;;;;;4932406;28;20264;-70
2022/05/12 12:48:46;;;;;;;4.60;1.30;;;;;;;;;;4924357;29;20059;-70
2022/05/12 12:51:13;;;;;;;;;;;;;;;;;;4933490;28;20442;-70
2022/05/12 12:56:35;;;;;;;7.35;1.35;;;;;;;;;;4931103;29;20105;-70
2022/05/12 12:59:04;;;;;;;7.18;1.65;;;;;;;;;;4929551;28;20483;-70
2022/05/12 13:01:52;;;;;;;4.20;1.27;;;;;;;;;;4932160;29;20077;-70
2022/05/12 13:04:23;;;;;;;5.15;1.48;;;;;;;;;;4927644;29;20059;-70
2022/05/12 13:06:53;;;;;;;5.88;1.60;;;;;;;;;;4930942;29;20066;-70
2022/05/12 13:09:24;;;;;;;5.18;1.40;;;;;;;;;;4931503;29;20486;-70
2022/05/12 13:12:06;;;;;;;7.75;1.42;;;;;;;;;;4933718;29;20079;-70
2022/05/12 13:14:35;;;;;;;6.82;1.55;;;;;;;;;;4932044;29;20047;-70
2022/05/12 13:17:02;;;;;;;6.47;1.55;;;;;;;;;;4931318;29;20477;-70
2022/05/12 13:19:38;;;;;;;8.07;1.50;;;;;;;;;;4931664;29;20059;-70
2022/05/12 13:22:06;;;;;;;5.15;1.30;;;;;;;;;;4932475;28;20078;-70
2022/05/12 13:24:35;;;;;;;5.03;1.48;;;;;;;;;;4930267;29;20043;-70
2022/05/12 13:27:04;;;;;;;4.55;1.60;;;;;;;;;;4930683;29;20059;-70
2022/05/12 13:29:34;;;;;;;5.95;1.60;;;;;;;;;;4929403;28;20154;-70
2022/05/12 13:32:03;;;;;;;6.88;1.50;;;;;;;;;;4932146;29;20051;-70
2022/05/12 13:34:32;;;;;;;5.60;1.60;;;;;;;;;;4928661;29;20051;-70
2022/05/12 13:37:14;;;;;;;7.72;1.50;;;;;;;;;;4920225;29;20058;-70
2022/05/12 13:39:48;;;;;;;8.15;1.52;;;;;;;;;;4930714;29;20043;-70
2022/05/12 13:42:17;;;;;;;7.68;1.80;;;;;;;;;;4931075;28;20047;-70
2022/05/12 13:44:49;;;;;;;7.80;1.50;;;;;;;;;;4927465;29;20055;-70
2022/05/12 13:47:21;;;;;;;4.68;1.40;;;;;;;;;;4931091;28;20129;-70
2022/05/12 13:49:50;;;;;;;5.70;1.90;;;;;;;;;;4930256;28;20059;-70
2022/05/12 13:52:21;;;;;;;6.32;1.70;;;;;;;;;;4931497;29;20054;-70
2022/05/12 13:55:05;;;;;;;7.28;1.83;;;;;;;;;;4936893;29;20051;-70
2022/05/12 13:57:34;;;;;;;4.95;1.42;;;;;;;;;;4923492;29;20107;-70
2022/05/12 14:00:02;;;;;;;7.63;1.55;;;;;;;;;;4925625;29;20055;-70
2022/05/12 14:02:34;;;;;;;7.38;1.50;;;;;;;;;;4927221;29;20056;-71
2022/05/12 14:05:06;;;;;;;3.25;1.30;;;;;;;;;;4920052;29;20056;-71
2022/05/12 14:07:34;;;;;;;8.23;1.75;;;;;;;;;;4925805;29;20519;-71
2022/05/12 14:10:11;;;;;;;11.13;1.80;;;;;;;;;;4931479;29;20062;-71
2022/05/12 14:19:13;;;;;;;5.90;1.50;;;;;;;;;;4927793;29;20052;-71
2022/05/12 14:20:59;;;;;;;4.78;1.60;;;;;;;;;;4924718;29;20059;-71
2022/05/12 14:23:27;;;;;;;5.88;1.63;;;;;;;;;;4926949;29;20514;-71
2022/05/12 14:25:54;;;;;;;2.88;1.13;;;;;;;;;;4926474;29;20047;-71
2022/05/12 14:28:21;;;;;;;7.63;1.60;;;;;;;;;;4926290;29;20086;-71
2022/05/12 14:30:48;;;;;;;4.75;1.50;;;;;;;;;;4926403;29;20594;-71
2022/05/12 14:33:18;;;;;;;7.68;1.83;;;;;;;;;;4925794;29;20059;-71
2022/05/12 14:35:45;;;;;;;4.28;1.42;;;;;;;;;;4923662;29;20058;-71
2022/05/12 14:38:14;;;;;;;3.30;1.27;;;;;;;;;;4925901;29;20051;-71
2022/05/12 14:40:41;;;;;;;7.65;1.60;;;;;;;;;;4920902;29;20056;-71
2022/05/12 14:43:08;;;;;;;7.22;1.75;;;;;;;;;;4925949;29;20067;-71
2022/05/12 14:45:35;;;;;;;6.43;1.98;;;;;;;;;;4925885;29;20436;-71
2022/05/12 14:48:05;;;;;;;4.93;1.50;;;;;;;;;;4922233;29;20057;-70
2022/05/12 14:50:32;;;;;;;8.05;1.42;;;;;;;;;;4925705;29;20451;-70
2022/05/12 14:53:00;;;;;;;8.95;1.80;;;;;;;;;;4924407;29;20119;-70
2022/05/12 14:55:29;;;;;;;7.93;1.63;;;;;;;;;;4923450;29;20063;-70
2022/05/12 14:57:56;;;;;;;4.93;1.67;;;;;;;;;;4924438;29;20076;-70
2022/05/12 15:00:23;;;;;;;4.43;1.50;;;;;;;;;;4927283;29;20059;-71
2022/05/12 15:02:51;;;;;;;5.13;1.45;;;;;;;;;;4925651;29;20134;-71
2022/05/12 15:05:18;;;;;;;3.95;1.40;;;;;;;;;;4923648;29;20112;-71
2022/05/12 15:07:46;;;;;;;8.38;1.73;;;;;;;;;;4924746;29;20055;-71
2022/05/12 15:10:13;;;;;;;8.73;1.90;;;;;;;;;;4926528;29;20067;-71
2022/05/12 15:12:42;;;;;;;3.58;1.50;;;;;;;;;;4926854;29;20048;-71
2022/05/12 15:15:10;;;;;;;6.50;1.65;;;;;;;;;;4925298;29;20058;-71
2022/05/12 15:17:37;;;;;;;6.25;1.77;;;;;;;;;;4929472;29;20055;-72
2022/05/12 15:20:06;;;;;;;6.43;1.60;;;;;;;;;;4932416;29;20154;-71